createdAt,value
2018-09-24T00:01:12.211Z,1.87
2018-09-24T00:03:48.389Z,1.63
2018-09-24T00:06:27.016Z,1.60
2018-09-24T00:09:10.961Z,1.80
2018-09-24T00:11:48.964Z,1.83
2018-09-24T00:17:14.318Z,1.77
2018-09-24T00:19:53.108Z,1.80
2018-09-24T00:22:31.017Z,1.67
2018-09-24T00:25:08.098Z,2.20
2018-09-24T00:27:43.954Z,2.00
2018-09-24T00:30:22.460Z,1.80
2018-09-24T00:33:00.070Z,1.90
2018-09-24T00:35:38.786Z,1.90
2018-09-24T00:38:13.821Z,2.27
2018-09-24T00:40:48.548Z,2.27
2018-09-24T00:43:41.296Z,1.97
2018-09-24T00:46:20.634Z,2.00
2018-09-24T00:49:02.733Z,2.17
2018-09-24T00:51:44.877Z,2.33
2018-09-24T00:54:25.599Z,2.30
2018-09-24T00:57:18.262Z,2.40
2018-09-24T00:59:57.588Z,2.17
2018-09-24T01:02:44.595Z,2.07
2018-09-24T01:05:18.704Z,2.40
2018-09-24T01:07:54.451Z,2.50
2018-09-24T01:10:35.034Z,2.33
2018-09-24T01:13:10.073Z,2.70
2018-09-24T01:15:48.279Z,2.33
2018-09-24T01:18:21.867Z,2.53
2018-09-24T01:21:04.174Z,2.50
2018-09-24T01:23:38.094Z,2.77
2018-09-24T01:26:10.451Z,2.73
2018-09-24T01:28:47.863Z,2.70
2018-09-24T01:31:23.303Z,2.77
2018-09-24T01:34:00.895Z,3.10
2018-09-24T01:36:40.024Z,2.80
2018-09-24T01:39:14.214Z,3.20
2018-09-24T01:44:38.959Z,3.03
2018-09-24T01:47:11.847Z,3.00
2018-09-24T01:49:45.210Z,3.50
2018-09-24T01:52:18.607Z,3.37
2018-09-24T01:54:51.733Z,3.50
2018-09-24T01:57:27.245Z,3.80
2018-09-24T02:00:07.532Z,3.97
2018-09-24T02:02:47.759Z,4.23
2018-09-24T02:05:27.023Z,3.97
2018-09-24T02:08:09.222Z,4.37
2018-09-24T02:10:46.691Z,4.23
2018-09-24T02:13:25.236Z,4.50
2018-09-24T02:16:02.631Z,4.50
2018-09-24T02:18:39.803Z,3.93
2018-09-24T02:21:14.322Z,3.77
2018-09-24T02:23:51.315Z,3.93
2018-09-24T02:26:22.984Z,4.17
2018-09-24T02:28:56.088Z,4.00
2018-09-24T02:31:33.407Z,3.90
2018-09-24T02:34:05.829Z,4.10
2018-09-24T02:36:41.684Z,4.13
2018-09-24T02:39:17.209Z,4.27
2018-09-24T02:41:58.197Z,4.63
2018-09-24T02:44:37.380Z,4.47
2018-09-24T02:47:16.337Z,4.13
2018-09-24T02:49:48.480Z,4.07
2018-09-24T02:52:21.056Z,4.10
2018-09-24T02:54:59.364Z,4.40
2018-09-24T02:57:33.524Z,4.27
2018-09-24T03:00:09.311Z,4.37
2018-09-24T03:02:47.604Z,4.60
2018-09-24T03:05:27.803Z,4.53
2018-09-24T03:08:08.690Z,4.80
2018-09-24T03:10:43.396Z,4.10
2018-09-24T03:13:17.386Z,4.53
2018-09-24T03:16:02.087Z,5.07
2018-09-24T03:18:41.333Z,5.27
2018-09-24T03:21:14.245Z,5.40
2018-09-24T03:23:53.822Z,5.30
2018-09-24T03:26:34.365Z,5.40
2018-09-24T03:29:11.879Z,5.07
2018-09-24T03:31:49.886Z,5.50
2018-09-24T03:34:24.611Z,5.20
2018-09-24T03:37:03.022Z,5.23
2018-09-24T03:39:38.045Z,5.50
2018-09-24T03:55:33.011Z,5.27
2018-09-24T03:58:18.009Z,5.90
2018-09-24T04:01:11.783Z,6.03
2018-09-24T04:03:47.021Z,5.90
2018-09-24T04:06:30.146Z,6.00
2018-09-24T04:09:13.782Z,6.33
2018-09-24T04:12:02.131Z,6.30
2018-09-24T04:14:56.672Z,6.30
2018-09-24T04:17:34.507Z,6.20
2018-09-24T04:20:13.039Z,6.27
2018-09-24T04:22:50.423Z,6.50
2018-09-24T04:25:27.814Z,6.50
2018-09-24T04:28:13.492Z,6.47
2018-09-24T04:30:55.592Z,7.23
2018-09-24T04:33:37.389Z,7.20
2018-09-24T04:36:33.723Z,7.23
2018-09-24T04:39:14.901Z,7.93
2018-09-24T04:41:56.797Z,7.07
2018-09-24T04:44:34.699Z,6.60
2018-09-24T04:47:11.892Z,6.40
2018-09-24T04:49:47.944Z,7.00
2018-09-24T04:52:23.695Z,6.53
2018-09-24T04:55:01.695Z,7.10
2018-09-24T04:57:41.236Z,7.30
2018-09-24T05:00:20.577Z,7.57
2018-09-24T05:02:58.981Z,7.27
2018-09-24T05:05:36.379Z,7.40
2018-09-24T05:08:16.177Z,7.13
2018-09-24T05:10:52.791Z,7.10
2018-09-24T05:13:32.747Z,8.53
2018-09-24T05:16:16.538Z,7.83
2018-09-24T05:18:54.797Z,8.17
2018-09-24T05:21:31.373Z,8.10
2018-09-24T05:24:07.531Z,8.40
2018-09-24T05:26:43.190Z,7.80
2018-09-24T05:29:19.392Z,8.10
2018-09-24T05:31:55.910Z,8.00
2018-09-24T05:34:32.874Z,7.87
2018-09-24T05:37:14.163Z,8.20
2018-09-24T05:39:51.054Z,8.00
2018-09-24T05:42:32.744Z,7.57
2018-09-24T05:45:22.731Z,8.30
2018-09-24T05:48:04.394Z,7.90
2018-09-24T05:50:51.058Z,8.43
2018-09-24T05:53:52.143Z,8.20
2018-09-24T05:56:31.902Z,7.90
2018-09-24T05:59:11.035Z,7.87
2018-09-24T06:01:49.169Z,7.93
2018-09-24T06:04:25.633Z,8.17
2018-09-24T06:07:02.207Z,7.97
2018-09-24T06:09:39.212Z,7.50
2018-09-24T06:12:23.389Z,8.30
2018-09-24T06:15:12.056Z,8.13
2018-09-24T06:17:49.974Z,8.53
2018-09-24T06:20:27.890Z,8.43
2018-09-24T06:23:07.328Z,8.83
2018-09-24T06:25:43.823Z,8.63
2018-09-24T06:28:21.725Z,9.00
2018-09-24T06:31:00.191Z,9.03
2018-09-24T06:33:40.848Z,8.63
2018-09-24T06:36:21.417Z,8.30
2018-09-24T06:38:58.930Z,9.07
2018-09-24T06:41:35.395Z,8.07
2018-09-24T06:44:12.085Z,8.50
2018-09-24T06:46:53.582Z,8.70
2018-09-24T06:49:34.499Z,8.10
2018-09-24T06:52:13.122Z,8.53
2018-09-24T06:54:48.981Z,8.50
2018-09-24T06:57:37.323Z,8.27
2018-09-24T07:00:15.802Z,7.57
2018-09-24T07:02:55.122Z,7.67
2018-09-24T07:08:18.506Z,7.73
2018-09-24T07:10:59.814Z,7.67
2018-09-24T07:13:38.667Z,8.00
2018-09-24T07:16:16.867Z,7.70
2018-09-24T07:18:59.298Z,8.00
2018-09-24T07:21:41.389Z,8.33
2018-09-24T07:24:27.766Z,8.40
2018-09-24T07:27:02.127Z,7.50
2018-09-24T07:29:36.440Z,6.13
2018-09-24T07:32:10.965Z,6.93
2018-09-24T07:34:45.266Z,6.40
2018-09-24T07:37:19.720Z,6.50
2018-09-24T07:39:54.060Z,6.77
2018-09-24T07:42:28.617Z,6.93
2018-09-24T07:45:02.896Z,6.80
2018-09-24T07:47:37.231Z,6.70
2018-09-24T07:50:11.536Z,5.53
2018-09-24T07:52:46.003Z,5.10
2018-09-24T07:55:20.465Z,5.53
2018-09-24T07:57:54.849Z,5.43
2018-09-24T08:00:29.878Z,4.60
2018-09-24T08:03:04.319Z,4.20
2018-09-24T08:05:38.590Z,4.50
2018-09-24T08:08:13.178Z,4.20
2018-09-24T08:10:47.531Z,4.60
2018-09-24T08:13:22.265Z,4.50
2018-09-24T08:15:56.437Z,4.50
2018-09-24T08:18:30.685Z,4.30
2018-09-24T08:21:04.963Z,4.97
2018-09-24T08:23:39.105Z,4.60
2018-09-24T08:26:13.331Z,4.50
2018-09-24T08:28:47.559Z,4.97
2018-09-24T08:31:21.748Z,4.57
2018-09-24T08:33:55.996Z,4.13
2018-09-24T08:36:30.482Z,4.40
2018-09-24T08:39:04.726Z,3.93
2018-09-24T08:41:38.979Z,3.70
2018-09-24T08:44:13.293Z,3.70
2018-09-24T08:46:47.436Z,3.80
2018-09-24T08:49:21.610Z,3.70
2018-09-24T08:51:55.967Z,3.30
2018-09-24T08:54:30.506Z,3.57
2018-09-24T08:57:04.870Z,3.63
2018-09-24T08:59:39.106Z,3.10
2018-09-24T09:02:13.314Z,3.30
2018-09-24T09:04:47.551Z,3.20
2018-09-24T09:07:21.761Z,3.37
2018-09-24T09:09:55.967Z,3.43
2018-09-24T09:12:30.564Z,3.10
2018-09-24T09:15:04.774Z,3.30
2018-09-24T09:17:38.979Z,3.07
2018-09-24T09:20:13.203Z,3.00
2018-09-24T09:22:47.438Z,3.13
2018-09-24T09:25:21.677Z,3.13
2018-09-24T09:27:56.215Z,3.13
2018-09-24T09:30:30.772Z,3.33
2018-09-24T09:33:05.243Z,3.57
2018-09-24T09:35:39.687Z,3.10
2018-09-24T09:38:13.933Z,2.93
2018-09-24T09:40:48.210Z,3.93
2018-09-24T09:43:22.591Z,3.50
2018-09-24T09:45:56.934Z,4.67
2018-09-24T09:48:31.421Z,3.90
2018-09-24T09:51:05.859Z,3.13
2018-09-24T09:53:40.325Z,2.80
2018-09-24T09:56:14.566Z,3.00
2018-09-24T09:58:48.926Z,3.07
2018-09-24T10:01:23.254Z,2.90
2018-09-24T10:03:57.563Z,2.87
2018-09-24T10:06:32.118Z,2.90
2018-09-24T10:09:06.538Z,3.07
2018-09-24T10:11:40.926Z,3.13
2018-09-24T10:14:15.294Z,3.10
2018-09-24T10:16:49.597Z,2.97
2018-09-24T10:19:23.939Z,2.90
2018-09-24T10:21:58.308Z,2.50
2018-09-24T10:24:32.850Z,2.80
2018-09-24T10:27:07.161Z,3.20
2018-09-24T10:29:41.594Z,3.00
2018-09-24T10:32:16.039Z,2.77
2018-09-24T10:34:50.298Z,2.93
2018-09-24T10:37:24.570Z,3.23
2018-09-24T10:39:59.013Z,3.30
2018-09-24T10:42:33.245Z,2.90
2018-09-24T10:45:07.598Z,3.07
2018-09-24T10:47:41.905Z,2.83
2018-09-24T10:50:16.411Z,2.70
2018-09-24T10:52:50.673Z,3.00
2018-09-24T10:55:24.977Z,2.70
2018-09-24T10:57:59.282Z,3.00
2018-09-24T11:00:33.859Z,3.13
2018-09-24T11:03:08.366Z,2.83
2018-09-24T11:05:42.894Z,2.97
2018-09-24T11:08:17.251Z,2.73
2018-09-24T11:10:51.617Z,3.13
2018-09-24T11:13:25.910Z,2.70
2018-09-24T11:16:00.377Z,2.50
2018-09-24T11:18:34.476Z,2.90
2018-09-24T11:21:08.889Z,2.57
2018-09-24T11:23:43.212Z,2.70
2018-09-24T11:28:51.798Z,3.13
2018-09-24T11:31:26.146Z,2.70
2018-09-24T11:34:00.446Z,2.50
2018-09-24T11:36:34.744Z,2.53
2018-09-24T11:39:09.170Z,2.70
2018-09-24T11:41:43.474Z,2.70
2018-09-24T11:44:17.982Z,2.30
2018-09-24T11:46:52.401Z,2.67
2018-09-24T11:49:26.990Z,2.57
2018-09-24T11:52:01.223Z,2.50
2018-09-24T11:54:35.459Z,2.63
2018-09-24T11:57:09.670Z,2.70
2018-09-24T11:59:43.896Z,2.50
2018-09-24T12:02:18.132Z,2.80
2018-09-24T12:04:52.332Z,2.60
2018-09-24T12:07:26.758Z,2.23
2018-09-24T12:10:01.094Z,2.40
2018-09-24T12:12:35.484Z,2.57
2018-09-24T12:15:09.947Z,2.73
2018-09-24T12:17:44.344Z,2.30
2018-09-24T12:20:18.567Z,2.30
2018-09-24T12:22:52.927Z,2.50
2018-09-24T12:25:27.154Z,2.50
2018-09-24T12:28:01.395Z,2.50
2018-09-24T12:30:35.610Z,2.40
2018-09-24T12:33:09.871Z,2.40
2018-09-24T12:35:44.086Z,2.50
2018-09-24T12:38:18.503Z,2.30
2018-09-24T12:40:52.719Z,2.40
2018-09-24T12:43:26.904Z,2.80
2018-09-24T12:46:01.131Z,2.83
2018-09-24T12:48:35.816Z,2.90
2018-09-24T12:51:09.990Z,2.80
2018-09-24T12:53:44.222Z,2.57
2018-09-24T12:56:19.130Z,2.80
2018-09-24T12:58:53.359Z,2.70
2018-09-24T13:01:27.607Z,2.60
2018-09-24T13:04:01.852Z,2.70
2018-09-24T13:06:36.084Z,2.43
2018-09-24T13:09:11.867Z,2.80
2018-09-24T13:11:46.357Z,2.67
2018-09-24T13:14:20.655Z,2.80
2018-09-24T13:16:54.878Z,2.83
2018-09-24T13:19:29.094Z,3.50
2018-09-24T13:22:03.327Z,3.27
2018-09-24T13:24:37.530Z,3.30
2018-09-24T13:27:12.086Z,2.83
2018-09-24T13:29:46.291Z,2.50
2018-09-24T13:32:20.539Z,3.03
2018-09-24T13:34:54.758Z,3.60
2018-09-24T13:37:29.118Z,3.00
2018-09-24T13:40:03.469Z,2.90
2018-09-24T13:42:37.736Z,3.00
2018-09-24T13:45:12.098Z,2.90
2018-09-24T13:47:46.635Z,2.80
2018-09-24T13:50:20.875Z,3.23
2018-09-24T13:52:55.312Z,2.83
2018-09-24T13:55:29.664Z,2.63
2018-09-24T13:58:03.923Z,2.53
2018-09-24T14:00:38.274Z,2.40
2018-09-24T14:03:12.740Z,2.23
2018-09-24T14:05:47.351Z,2.33
2018-09-24T14:08:21.861Z,2.00
2018-09-24T14:10:56.189Z,2.23
2018-09-24T14:13:30.504Z,1.90
2018-09-24T14:16:05.033Z,2.33
2018-09-24T14:18:39.513Z,2.03
2018-09-24T14:21:13.871Z,1.83
2018-09-24T14:23:48.162Z,2.00
2018-09-24T14:26:22.421Z,1.93
2018-09-24T14:28:56.814Z,2.00
2018-09-24T14:31:31.116Z,2.40
2018-09-24T14:34:05.627Z,2.13
2018-09-24T14:36:39.955Z,2.20
2018-09-24T14:39:14.534Z,1.90
2018-09-24T14:41:48.864Z,2.07
2018-09-24T14:44:23.345Z,2.13
2018-09-24T14:46:57.728Z,2.20
2018-09-24T14:49:32.111Z,2.27
2018-09-24T14:52:06.442Z,1.73
2018-09-24T14:54:40.692Z,2.00
2018-09-24T14:57:15.015Z,2.00
2018-09-24T14:59:49.336Z,2.20
2018-09-24T15:02:23.786Z,2.30
2018-09-24T15:04:58.352Z,1.90
2018-09-24T15:07:32.694Z,1.93
2018-09-24T15:10:06.959Z,2.30
2018-09-24T15:12:41.345Z,1.90
2018-09-24T15:15:15.802Z,1.93
2018-09-24T15:17:50.074Z,2.30
2018-09-24T15:20:24.367Z,2.20
2018-09-24T15:22:58.687Z,2.10
2018-09-24T15:25:33.013Z,2.07
2018-09-24T15:28:07.551Z,2.00
2018-09-24T15:30:42.023Z,2.00
2018-09-24T15:33:16.389Z,1.90
2018-09-24T15:35:50.716Z,1.90
2018-09-24T15:38:25.053Z,1.87
2018-09-24T15:40:59.411Z,1.80
2018-09-24T15:43:33.458Z,1.60
2018-09-24T15:46:13.341Z,1.80
2018-09-24T15:48:53.098Z,1.73
2018-09-24T15:51:32.799Z,1.70
2018-09-24T15:54:12.499Z,1.80
2018-09-24T15:56:52.222Z,1.83
2018-09-24T15:59:32.013Z,1.67
2018-09-24T16:02:07.169Z,1.70
2018-09-24T16:04:41.471Z,1.70
2018-09-24T16:07:15.659Z,2.17
2018-09-24T16:09:50.216Z,1.67
2018-09-24T16:12:26.335Z,1.80
2018-09-24T16:15:00.787Z,1.57
2018-09-24T16:17:35.152Z,1.80
2018-09-24T16:20:10.158Z,1.80
2018-09-24T16:22:44.395Z,1.80
2018-09-24T16:25:18.636Z,1.77
2018-09-24T16:27:52.837Z,2.00
2018-09-24T16:30:27.083Z,2.00
2018-09-24T16:33:01.502Z,1.67
2018-09-24T16:35:35.811Z,2.20
2018-09-24T16:38:10.136Z,1.73
2018-09-24T16:40:44.394Z,2.00
2018-09-24T16:43:18.782Z,1.77
2018-09-24T16:45:53.175Z,2.00
2018-09-24T16:48:27.502Z,1.67
2018-09-24T16:51:02.782Z,1.90
2018-09-24T16:53:37.006Z,1.80
2018-09-24T16:56:11.254Z,2.07
2018-09-24T16:58:45.468Z,1.80
2018-09-24T17:01:19.663Z,1.90
2018-09-24T17:03:53.921Z,2.00
2018-09-24T17:06:28.118Z,2.20
2018-09-24T17:09:02.346Z,2.03
2018-09-24T17:11:36.638Z,2.10
2018-09-24T17:14:10.843Z,2.17
2018-09-24T17:16:45.067Z,2.20
2018-09-24T17:19:19.347Z,2.20
2018-09-24T17:21:53.560Z,2.30
2018-09-24T17:24:28.010Z,2.80
2018-09-24T17:27:02.218Z,2.50
2018-09-24T17:29:36.692Z,2.30
2018-09-24T17:32:10.909Z,2.30
2018-09-24T17:34:45.297Z,2.40
2018-09-24T17:37:19.726Z,2.50
2018-09-24T17:39:54.199Z,2.40
2018-09-24T17:42:28.586Z,2.60
2018-09-24T17:45:03.206Z,1.87
2018-09-24T17:47:37.523Z,1.97
2018-09-24T17:50:11.876Z,2.30
2018-09-24T17:52:46.195Z,2.50
2018-09-24T17:55:20.362Z,2.30
2018-09-24T17:57:54.718Z,2.27
2018-09-24T18:00:29.132Z,2.40
2018-09-24T18:03:03.582Z,2.10
2018-09-24T18:05:37.818Z,2.00
2018-09-24T18:08:12.294Z,2.10
2018-09-24T18:10:46.725Z,1.90
2018-09-24T18:13:21.227Z,2.10
2018-09-24T18:15:55.610Z,2.10
2018-09-24T18:18:30.182Z,2.10
2018-09-24T18:21:19.569Z,2.00
2018-09-24T18:26:46.850Z,2.00
2018-09-24T18:29:21.248Z,1.97
2018-09-24T18:31:55.612Z,2.27
2018-09-24T18:34:30.175Z,2.20
2018-09-24T18:37:04.474Z,1.80
2018-09-24T18:39:38.838Z,2.27
2018-09-24T18:42:13.534Z,2.27
2018-09-24T18:44:47.906Z,2.17
2018-09-24T18:47:22.246Z,2.17
2018-09-24T18:49:56.810Z,1.80
2018-09-24T18:52:31.078Z,2.10
2018-09-24T18:55:05.630Z,1.73
2018-09-24T18:57:39.945Z,1.90
2018-09-24T19:00:14.087Z,2.17
2018-09-24T19:02:48.502Z,2.40
2018-09-24T19:05:22.974Z,2.30
2018-09-24T19:07:57.434Z,2.20
2018-09-24T19:10:31.787Z,2.37
2018-09-24T19:13:06.056Z,1.90
2018-09-24T19:15:40.592Z,2.10
2018-09-24T19:18:14.947Z,2.20
2018-09-24T19:20:49.415Z,2.10
2018-09-24T19:23:23.690Z,1.90
2018-09-24T19:25:57.959Z,1.97
2018-09-24T19:28:32.298Z,2.10
2018-09-24T19:31:06.670Z,2.03
2018-09-24T19:33:41.023Z,2.00
2018-09-24T19:36:15.406Z,2.03
2018-09-24T19:38:49.701Z,1.87
2018-09-24T19:41:24.220Z,2.03
2018-09-24T19:43:58.594Z,2.00
2018-09-24T19:46:32.903Z,2.00
2018-09-24T19:49:07.176Z,2.00
2018-09-24T19:51:41.491Z,1.80
2018-09-24T19:54:15.810Z,2.10
2018-09-24T19:56:50.146Z,2.00
2018-09-24T19:59:24.703Z,1.80
2018-09-24T20:01:59.033Z,1.90
2018-09-24T20:04:33.231Z,1.90
2018-09-24T20:07:07.527Z,2.00
2018-09-24T20:09:41.795Z,1.80
2018-09-24T20:12:16.055Z,1.70
2018-09-24T20:14:50.358Z,1.60
2018-09-24T20:17:24.683Z,1.90
2018-09-24T20:19:59.030Z,1.80
2018-09-24T20:22:33.492Z,2.00
2018-09-24T20:25:07.790Z,1.90
2018-09-24T20:27:42.114Z,1.87
2018-09-24T20:30:16.528Z,2.00
2018-09-24T20:32:50.945Z,1.73
2018-09-24T20:35:25.362Z,1.60
2018-09-24T20:37:59.654Z,1.67
2018-09-24T20:40:34.006Z,1.70
2018-09-24T20:43:08.302Z,1.80
2018-09-24T20:45:42.638Z,1.70
2018-09-24T20:48:17.094Z,2.00
2018-09-24T20:50:51.442Z,1.80
2018-09-24T20:53:25.783Z,2.00
2018-09-24T20:56:00.085Z,1.80
2018-09-24T20:58:34.519Z,1.83
2018-09-24T21:01:08.943Z,1.60
2018-09-24T21:03:43.502Z,1.70
2018-09-24T21:06:17.895Z,1.83
2018-09-24T21:08:52.329Z,1.90
2018-09-24T21:11:26.833Z,1.70
2018-09-24T21:14:01.103Z,1.80
2018-09-24T21:16:35.346Z,1.70
2018-09-24T21:19:09.630Z,1.93
2018-09-24T21:21:44.066Z,1.90
2018-09-24T21:24:18.502Z,1.67
2018-09-24T21:26:52.826Z,1.60
2018-09-24T21:29:27.123Z,1.90
2018-09-24T21:32:01.562Z,1.67
2018-09-24T21:34:35.982Z,1.73
2018-09-24T21:37:10.271Z,1.67
2018-09-24T21:39:45.710Z,2.10
2018-09-24T21:42:20.059Z,1.90
2018-09-24T21:44:54.662Z,2.03
2018-09-24T21:47:28.941Z,1.80
2018-09-24T21:50:03.227Z,1.83
2018-09-24T21:52:37.598Z,1.93
2018-09-24T21:55:12.054Z,1.80
2018-09-24T21:57:46.384Z,1.87
2018-09-24T22:00:20.615Z,2.07
2018-09-24T22:02:55.016Z,1.80
2018-09-24T22:05:29.480Z,1.70
2018-09-24T22:08:03.849Z,1.93
2018-09-24T22:10:38.379Z,1.87
2018-09-24T22:13:12.749Z,1.93
2018-09-24T22:15:48.119Z,1.90
2018-09-24T22:18:22.416Z,2.00
2018-09-24T22:20:56.747Z,2.00
2018-09-24T22:23:31.030Z,1.87
2018-09-24T22:26:05.495Z,1.60
2018-09-24T22:28:39.834Z,1.90
2018-09-24T22:31:14.278Z,1.90
2018-09-24T22:33:48.691Z,1.83
2018-09-24T22:36:23.023Z,1.80
2018-09-24T22:38:57.343Z,1.90
2018-09-24T22:41:31.659Z,1.80
2018-09-24T22:44:06.114Z,1.90
2018-09-24T22:46:40.399Z,1.80
2018-09-24T22:49:14.734Z,1.83
2018-09-24T22:51:49.039Z,1.70
2018-09-24T22:54:23.337Z,2.20
2018-09-24T22:56:57.586Z,2.10
2018-09-24T22:59:31.891Z,1.90
2018-09-24T23:02:06.202Z,1.97
2018-09-24T23:04:40.448Z,1.97
2018-09-24T23:07:14.742Z,2.07
2018-09-24T23:09:49.215Z,1.80
2018-09-24T23:12:23.730Z,2.17
2018-09-24T23:14:58.116Z,1.90
2018-09-24T23:17:32.386Z,2.00
2018-09-24T23:20:06.771Z,1.97
2018-09-24T23:22:41.131Z,2.10
2018-09-24T23:25:15.635Z,2.00
2018-09-24T23:27:49.907Z,2.20
2018-09-24T23:30:24.167Z,1.80
2018-09-24T23:32:58.694Z,1.90
2018-09-24T23:35:33.153Z,1.90
2018-09-24T23:38:07.736Z,1.70
2018-09-24T23:40:42.091Z,1.73
2018-09-24T23:43:16.426Z,1.87
2018-09-24T23:45:50.720Z,1.80
2018-09-24T23:48:25.126Z,2.13
2018-09-24T23:50:59.640Z,1.93
2018-09-24T23:53:34.050Z,1.87
2018-09-24T23:56:08.442Z,1.73
2018-09-24T23:58:42.759Z,1.97
